Terminal Aerodrome Forecast
Issued by NWS Oklahoma City, OK

Home | Current Version | Previous Version | Text Only | Print | Product List | Glossary On
Versions: 1 2 3 4 5 6 7 8 9 10 11 12
000
FTUS44 KOUN 021740
TAFOUN
TAF
KOUN 021740Z 0218/0318 04005KT P6SM BKN200
     FM022100 07010KT P6SM BKN040 OVC120
     FM030600 08011KT 5SM -RA SCT008 OVC015=

USA.gov is the U.S. government's official web portal to all federal, state and local government web resources and services.